Time;durP1;ratioP1;P1;durP2;ratioP2;P2;SDS_P1;SDS_P2;PMS_P1;PMS_P2;Temp;Humidity;BMP_temperature;BMP_pressure;BME280_temperature;BME280_humidity;BME280_pressure;Samples;Min_cycle;Max_cycle;Signal;HPM_P1;HPM_P2
2022/12/13 00:00:38;;;;;;;12.15;6.47;;;23.00;99.90;;;;;;5033187;28;20077;-54
2022/12/13 00:03:03;;;;;;;12.75;6.25;;;22.90;99.90;;;;;;5033468;28;20142;-54
2022/12/13 00:05:31;;;;;;;13.80;6.70;;;22.90;99.90;;;;;;5033633;28;20412;-54
2022/12/13 00:07:58;;;;;;;11.25;6.25;;;22.90;99.90;;;;;;5033435;28;20471;-55
2022/12/13 00:10:24;;;;;;;12.05;6.35;;;22.90;99.90;;;;;;5033198;28;20029;-54
2022/12/13 00:12:50;;;;;;;13.10;6.68;;;22.90;99.90;;;;;;5033284;28;20032;-54
2022/12/13 00:15:16;;;;;;;15.60;7.03;;;22.90;99.90;;;;;;5033123;28;20067;-55
2022/12/13 00:17:41;;;;;;;13.88;6.45;;;22.90;99.90;;;;;;5033237;28;20094;-55
2022/12/13 00:20:08;;;;;;;13.80;6.68;;;22.90;99.90;;;;;;5033546;28;20044;-52
2022/12/13 00:22:34;;;;;;;13.80;6.40;;;22.90;99.90;;;;;;5033005;28;20467;-54
2022/12/13 00:24:59;;;;;;;16.77;5.93;;;22.90;99.90;;;;;;5015410;28;20033;-53
2022/12/13 00:27:25;;;;;;;13.15;6.80;;;22.90;99.90;;;;;;5019019;28;20030;-54
2022/12/13 00:29:51;;;;;;;9.40;5.85;;;22.90;99.90;;;;;;5032997;28;20041;-54
2022/12/13 00:32:17;;;;;;;12.73;6.20;;;22.80;99.90;;;;;;5015149;28;20255;-54
2022/12/13 00:34:42;;;;;;;13.35;6.35;;;22.80;99.90;;;;;;5032836;28;20049;-55
2022/12/13 00:37:08;;;;;;;13.05;5.75;;;22.90;99.90;;;;;;5032744;28;20328;-53
2022/12/13 00:39:34;;;;;;;15.52;6.55;;;22.80;99.90;;;;;;5032650;28;20025;-53
2022/12/13 00:41:59;;;;;;;15.68;7.28;;;22.80;99.90;;;;;;5032913;28;20041;-55
2022/12/13 00:44:26;;;;;;;10.93;6.25;;;22.80;99.90;;;;;;5032775;28;20028;-54
2022/12/13 00:46:52;;;;;;;13.43;5.90;;;22.80;99.90;;;;;;5032522;28;20032;-53
2022/12/13 00:49:18;;;;;;;16.58;7.20;;;22.80;99.90;;;;;;5032608;28;20033;-53
2022/12/13 00:51:44;;;;;;;14.43;6.70;;;22.80;99.90;;;;;;5032620;28;20100;-55
2022/12/13 00:54:10;;;;;;;14.20;6.22;;;22.80;99.90;;;;;;5032388;28;20163;-55
2022/12/13 00:56:37;;;;;;;12.80;6.55;;;22.80;99.90;;;;;;5031804;28;20026;-54
2022/12/13 00:59:03;;;;;;;14.40;7.00;;;22.80;99.90;;;;;;5032642;28;20033;-54
2022/12/13 01:01:31;;;;;;;13.15;5.60;;;22.80;99.90;;;;;;5066128;22;20414;-54
2022/12/13 01:04:01;;;;;;;16.05;6.65;;;22.80;99.90;;;;;;5052529;28;20095;-54
2022/12/13 01:06:36;;;;;;;14.32;7.47;;;22.80;99.90;;;;;;5052179;28;20028;-53
2022/12/13 01:09:03;;;;;;;12.65;6.32;;;22.80;99.90;;;;;;5052334;28;20119;-53
2022/12/13 01:11:29;;;;;;;11.25;5.72;;;22.70;99.90;;;;;;5052071;28;20051;-54
2022/12/13 01:13:55;;;;;;;14.25;6.22;;;22.70;99.90;;;;;;5051988;28;20072;-54
2022/12/13 01:16:20;;;;;;;13.32;6.10;;;22.80;99.90;;;;;;5052156;28;20078;-54
2022/12/13 01:18:46;;;;;;;9.88;5.90;;;22.70;99.90;;;;;;5051922;28;20028;-54
2022/12/13 01:21:18;;;;;;;12.15;6.55;;;22.70;99.90;;;;;;5051916;28;20028;-54
2022/12/13 01:23:44;;;;;;;13.55;6.50;;;22.70;99.90;;;;;;5051853;28;20379;-54
2022/12/13 01:26:18;;;;;;;11.63;5.75;;;22.70;99.90;;;;;;5051900;28;20471;-55
2022/12/13 01:28:45;;;;;;;13.07;5.32;;;22.70;99.90;;;;;;5051862;28;20470;-55
2022/12/13 01:31:13;;;;;;;12.23;6.43;;;22.70;99.90;;;;;;5051746;28;20070;-54
2022/12/13 01:33:39;;;;;;;9.95;5.03;;;22.70;99.90;;;;;;5051821;28;20021;-54
2022/12/13 01:36:08;;;;;;;12.50;5.40;;;22.70;99.90;;;;;;5051949;28;20493;-54
2022/12/13 01:38:35;;;;;;;11.63;5.57;;;22.70;99.90;;;;;;5052026;28;20505;-55
2022/12/13 01:41:01;;;;;;;8.80;5.03;;;22.70;99.90;;;;;;5051787;28;20055;-54
2022/12/13 01:43:35;;;;;;;8.52;5.65;;;22.70;99.90;;;;;;5033782;28;20029;-54
2022/12/13 01:46:01;;;;;;;9.43;4.85;;;22.60;99.90;;;;;;5051710;28;20025;-54
2022/12/13 01:48:31;;;;;;;10.13;5.38;;;22.70;99.90;;;;;;5051563;28;20108;-54
2022/12/13 01:51:02;;;;;;;9.32;4.72;;;22.70;99.90;;;;;;5051704;28;20028;-54
2022/12/13 01:53:32;;;;;;;14.70;5.15;;;22.60;99.90;;;;;;5051638;28;20113;-54
2022/12/13 01:56:05;;;;;;;10.00;6.03;;;22.60;99.90;;;;;;5051649;28;20113;-54
2022/12/13 01:58:31;;;;;;;11.27;5.00;;;22.60;99.90;;;;;;5051650;28;20111;-54
2022/12/13 02:00:59;;;;;;;12.95;5.75;;;22.60;99.90;;;;;;5051877;28;20033;-54
2022/12/13 02:03:25;;;;;;;11.57;4.85;;;22.60;99.90;;;;;;5051649;28;20111;-54
2022/12/13 02:06:29;;;;;;;10.65;5.20;;;22.60;99.90;;;;;;5051416;28;20491;-55
2022/12/13 02:08:55;;;;;;;9.40;4.20;;;22.60;99.90;;;;;;5054443;28;20025;-55
2022/12/13 02:11:21;;;;;;;9.85;5.25;;;22.60;99.90;;;;;;5055434;28;20025;-55
2022/12/13 02:13:47;;;;;;;9.63;4.15;;;22.60;99.90;;;;;;5055543;28;20096;-55
2022/12/13 02:16:36;;;;;;;12.73;4.55;;;22.60;99.90;;;;;;5055444;28;20064;-55
2022/12/13 02:19:29;;;;;;;8.95;4.35;;;22.60;99.90;;;;;;5043239;28;20036;-55
2022/12/13 02:22:40;;;;;;;9.45;4.20;;;22.50;99.90;;;;;;5055130;28;20027;-55
2022/12/13 02:25:40;;;;;;;9.85;3.83;;;22.60;99.90;;;;;;5041908;28;20116;-54
2022/12/13 02:28:12;;;;;;;8.45;4.43;;;22.50;99.90;;;;;;5044021;28;20021;-55
2022/12/13 02:30:48;;;;;;;9.77;3.72;;;22.60;99.90;;;;;;5055307;28;20064;-55
2022/12/13 02:33:31;;;;;;;8.73;4.15;;;22.50;99.90;;;;;;5055094;28;20021;-55
2022/12/13 02:36:30;;;;;;;8.57;3.65;;;22.50;99.90;;;;;;5055028;28;20029;-55
2022/12/13 02:39:05;;;;;;;8.68;3.70;;;22.50;99.90;;;;;;5054986;28;20474;-54
2022/12/13 02:41:45;;;;;;;11.30;3.63;;;22.50;99.90;;;;;;5054845;28;20115;-54
2022/12/13 02:44:38;;;;;;;11.10;3.75;;;22.50;99.90;;;;;;5055126;28;20118;-54
2022/12/13 02:47:18;;;;;;;8.75;4.60;;;22.50;99.90;;;;;;5054814;28;20036;-54
2022/12/13 02:49:48;;;;;;;11.50;3.83;;;22.50;99.90;;;;;;5054761;28;20537;-54
2022/12/13 02:52:18;;;;;;;9.75;4.32;;;22.50;99.90;;;;;;5054763;28;20425;-53
2022/12/13 02:54:44;;;;;;;7.25;3.17;;;22.50;99.90;;;;;;5054800;28;20024;-53
2022/12/13 02:57:41;;;;;;;8.27;3.00;;;22.50;99.90;;;;;;5036910;28;20116;-54
2022/12/13 03:00:14;;;;;;;11.82;3.30;;;22.50;99.90;;;;;;5055195;28;20156;-54
2022/12/13 03:02:49;;;;;;;8.10;3.70;;;22.40;99.90;;;;;;5054806;28;20025;-55
2022/12/13 03:08:25;;;;;;;10.02;3.28;;;22.40;99.90;;;;;;5042550;28;20055;-53
2022/12/13 03:11:09;;;;;;;11.07;3.20;;;22.40;99.90;;;;;;5054475;28;20445;-54
2022/12/13 03:13:56;;;;;;;8.02;3.40;;;22.40;99.90;;;;;;5042582;28;20036;-54
2022/12/13 03:16:35;;;;;;;8.65;3.13;;;22.40;99.90;;;;;;5054238;28;20029;-54
2022/12/13 03:19:06;;;;;;;8.13;2.97;;;22.40;99.90;;;;;;5027093;28;20088;-54
2022/12/13 03:21:40;;;;;;;6.95;2.58;;;22.40;99.90;;;;;;5048235;28;20483;-54
2022/12/13 03:24:06;;;;;;;8.02;3.03;;;22.40;99.90;;;;;;5041209;28;20490;-54
2022/12/13 03:26:33;;;;;;;11.40;3.42;;;22.40;99.90;;;;;;5054123;28;20033;-54
2022/12/13 03:28:58;;;;;;;9.32;3.38;;;22.40;99.90;;;;;;5053880;28;20072;-54
2022/12/13 03:31:24;;;;;;;8.48;3.10;;;22.40;99.90;;;;;;5054205;28;20049;-55
2022/12/13 03:33:50;;;;;;;8.43;3.00;;;22.40;99.90;;;;;;5054125;28;20063;-54
2022/12/13 03:36:17;;;;;;;6.47;2.40;;;22.40;99.90;;;;;;5053868;28;20074;-55
2022/12/13 03:38:45;;;;;;;4.38;2.63;;;22.40;99.90;;;;;;5036144;28;20421;-55
2022/12/13 03:41:15;;;;;;;8.30;3.35;;;22.40;99.90;;;;;;5054109;28;20031;-54
2022/12/13 03:43:42;;;;;;;5.85;2.63;;;22.40;99.90;;;;;;5054121;28;20025;-54
2022/12/13 03:46:08;;;;;;;7.05;2.58;;;22.40;99.90;;;;;;5048802;28;20025;-54
2022/12/13 03:48:34;;;;;;;7.20;3.35;;;22.40;99.90;;;;;;5051501;28;20029;-54
2022/12/13 03:51:01;;;;;;;8.88;2.70;;;22.40;99.90;;;;;;5051236;28;20101;-57
2022/12/13 03:53:28;;;;;;;8.65;3.00;;;22.40;99.90;;;;;;5051919;28;20017;-57
2022/12/13 03:55:53;;;;;;;6.97;2.80;;;22.40;99.90;;;;;;5053205;28;20379;-56
2022/12/13 03:58:20;;;;;;;7.43;3.33;;;22.40;99.90;;;;;;5053670;28;20028;-55
2022/12/13 04:00:46;;;;;;;8.68;3.00;;;22.40;99.90;;;;;;5053618;28;20124;-55
2022/12/13 04:03:12;;;;;;;12.20;3.47;;;22.40;99.90;;;;;;5053387;28;20029;-54
2022/12/13 04:05:37;;;;;;;7.18;3.00;;;22.40;99.90;;;;;;5053291;28;20036;-55
2022/12/13 04:08:04;;;;;;;10.85;3.15;;;22.40;99.90;;;;;;5053264;28;20036;-55
2022/12/13 04:10:30;;;;;;;7.93;2.38;;;22.40;99.90;;;;;;5024882;28;20088;-55
2022/12/13 04:15:47;;;;;;;10.35;2.92;;;22.40;99.90;;;;;;5053463;28;20615;-55
2022/12/13 04:18:17;;;;;;;9.00;2.38;;;22.40;99.90;;;;;;5053054;28;20021;-54
2022/12/13 04:20:43;;;;;;;17.92;3.10;;;22.40;99.90;;;;;;5053328;28;20035;-56
2022/12/13 04:23:09;;;;;;;8.18;2.83;;;22.40;99.90;;;;;;5053112;28;20021;-55
2022/12/13 04:25:35;;;;;;;8.60;3.05;;;22.40;99.90;;;;;;5053071;28;20021;-53
2022/12/13 04:28:00;;;;;;;8.02;3.13;;;22.40;99.90;;;;;;5053116;28;20017;-52
2022/12/13 04:30:26;;;;;;;7.47;2.40;;;22.40;99.90;;;;;;5052906;28;20513;-55
2022/12/13 04:32:52;;;;;;;8.95;2.47;;;22.40;99.90;;;;;;5052622;28;20020;-56
2022/12/13 04:35:18;;;;;;;9.20;2.67;;;22.40;99.90;;;;;;5053005;28;20033;-52
2022/12/13 04:37:43;;;;;;;7.38;2.25;;;22.40;99.90;;;;;;5050928;28;20060;-53
2022/12/13 04:40:10;;;;;;;6.90;2.53;;;22.40;99.90;;;;;;5033495;28;20021;-54
2022/12/13 04:42:36;;;;;;;6.40;2.53;;;22.40;99.90;;;;;;5049038;28;20029;-54
2022/12/13 04:45:02;;;;;;;6.72;2.30;;;22.40;99.90;;;;;;5041977;28;20025;-53
2022/12/13 04:47:27;;;;;;;7.82;2.25;;;22.40;99.90;;;;;;5052546;28;20021;-54
2022/12/13 04:49:54;;;;;;;6.47;2.72;;;22.40;99.90;;;;;;5052297;28;20387;-54
2022/12/13 04:52:20;;;;;;;10.15;2.25;;;22.30;99.90;;;;;;5052475;28;20390;-55
2022/12/13 04:54:46;;;;;;;7.35;2.10;;;22.40;99.90;;;;;;5050410;28;20084;-55
2022/12/13 04:57:11;;;;;;;6.68;2.25;;;22.40;99.90;;;;;;5049814;28;20095;-55
2022/12/13 04:59:39;;;;;;;10.65;2.95;;;22.30;99.90;;;;;;5050569;28;20104;-55
2022/12/13 05:02:06;;;;;;;9.32;2.10;;;22.30;99.90;;;;;;5032915;28;20089;-55
2022/12/13 05:04:32;;;;;;;9.32;2.63;;;22.30;99.90;;;;;;5050885;28;20124;-55
2022/12/13 05:06:57;;;;;;;5.50;2.10;;;22.30;99.90;;;;;;5048168;28;20431;-55
2022/12/13 05:09:24;;;;;;;5.28;1.98;;;22.30;99.90;;;;;;5032429;28;20296;-55
2022/12/13 05:11:49;;;;;;;11.38;2.42;;;22.30;99.90;;;;;;5050765;28;20025;-55
2022/12/13 05:14:15;;;;;;;7.45;2.55;;;22.30;99.90;;;;;;5051123;28;20021;-55
2022/12/13 05:16:41;;;;;;;5.30;1.83;;;22.30;99.90;;;;;;5049023;28;20074;-55
2022/12/13 05:19:07;;;;;;;8.38;2.40;;;22.30;99.90;;;;;;5050566;28;20036;-55
2022/12/13 05:21:33;;;;;;;7.07;1.88;;;22.30;99.90;;;;;;5049007;28;20086;-55
2022/12/13 05:24:02;;;;;;;8.23;3.13;;;22.30;99.90;;;;;;5050900;28;20017;-55
2022/12/13 05:26:28;;;;;;;5.63;2.40;;;22.30;99.90;;;;;;5049742;28;20103;-55
2022/12/13 05:28:58;;;;;;;9.65;2.63;;;22.30;99.90;;;;;;5032624;28;20427;-55
2022/12/13 05:31:24;;;;;;;11.10;2.97;;;22.30;99.90;;;;;;5051853;28;20546;-55
2022/12/13 05:33:51;;;;;;;7.15;2.42;;;22.20;99.90;;;;;;5050782;28;20115;-55
2022/12/13 05:36:17;;;;;;;9.40;2.22;;;22.30;99.90;;;;;;5050023;28;20021;-55
2022/12/13 05:38:42;;;;;;;6.85;2.53;;;22.20;99.90;;;;;;5049635;28;20044;-55
2022/12/13 05:41:15;;;;;;;11.25;2.28;;;22.20;99.90;;;;;;5049812;28;20021;-55
2022/12/13 05:43:40;;;;;;;7.78;2.35;;;22.20;99.90;;;;;;5049363;28;20386;-55
2022/12/13 05:46:06;;;;;;;9.52;2.72;;;22.20;99.90;;;;;;5049726;28;20028;-55
2022/12/13 05:48:32;;;;;;;11.85;2.53;;;22.20;99.90;;;;;;5050479;28;20037;-55
2022/12/13 05:50:58;;;;;;;5.22;2.08;;;22.20;99.90;;;;;;5051720;28;20036;-55
2022/12/13 05:53:23;;;;;;;5.15;2.10;;;22.20;99.90;;;;;;5051649;28;20025;-55
2022/12/13 05:55:49;;;;;;;4.90;1.90;;;22.20;99.90;;;;;;5051775;28;20028;-55
2022/12/13 05:58:15;;;;;;;6.18;2.13;;;22.20;99.90;;;;;;5051997;28;20503;-55
2022/12/13 06:00:42;;;;;;;11.68;2.72;;;22.20;99.90;;;;;;5051338;28;20131;-55
2022/12/13 06:03:08;;;;;;;13.57;2.67;;;22.20;99.90;;;;;;5051397;28;20029;-55
2022/12/13 06:05:33;;;;;;;8.10;2.42;;;22.20;99.90;;;;;;5051462;28;20028;-55
2022/12/13 06:08:00;;;;;;;9.60;2.78;;;22.20;99.90;;;;;;5051510;28;20033;-56
2022/12/13 06:10:27;;;;;;;6.28;2.90;;;22.20;99.90;;;;;;5051395;28;20090;-55
2022/12/13 06:12:53;;;;;;;5.35;2.08;;;22.20;99.90;;;;;;5051583;28;20021;-55
2022/12/13 06:15:18;;;;;;;6.72;2.88;;;22.20;99.90;;;;;;5051399;28;20063;-55
2022/12/13 06:17:44;;;;;;;7.88;2.20;;;22.20;99.90;;;;;;5051051;28;20028;-55
2022/12/13 06:20:10;;;;;;;8.18;2.58;;;22.20;99.90;;;;;;5051238;28;20028;-55
2022/12/13 06:22:36;;;;;;;4.60;2.20;;;22.20;99.90;;;;;;5051469;28;20029;-55
2022/12/13 06:25:02;;;;;;;4.13;2.00;;;22.20;99.90;;;;;;5051266;28;20021;-55
2022/12/13 06:27:28;;;;;;;8.07;2.45;;;22.20;99.90;;;;;;5050928;28;20479;-55
2022/12/13 06:29:54;;;;;;;4.45;2.13;;;22.20;99.90;;;;;;5051425;28;20052;-55
2022/12/13 06:32:20;;;;;;;8.85;2.65;;;22.10;99.90;;;;;;5051032;28;20159;-54
2022/12/13 06:34:45;;;;;;;11.05;3.60;;;22.10;99.90;;;;;;5051201;28;20147;-55
2022/12/13 06:37:12;;;;;;;7.65;2.65;;;22.10;99.90;;;;;;5051183;28;20075;-55
2022/12/13 06:39:38;;;;;;;7.28;2.78;;;22.10;99.90;;;;;;5051111;28;20029;-55
2022/12/13 06:42:06;;;;;;;8.80;3.45;;;22.10;99.90;;;;;;5051114;28;20025;-55
2022/12/13 06:44:33;;;;;;;9.82;2.78;;;22.10;99.90;;;;;;5050990;28;20029;-54
2022/12/13 06:47:00;;;;;;;8.45;2.83;;;22.10;99.90;;;;;;5051046;28;20101;-55
2022/12/13 06:49:25;;;;;;;5.50;1.88;;;22.10;99.90;;;;;;5051084;28;20094;-55
2022/12/13 06:51:52;;;;;;;7.07;2.28;;;22.00;99.90;;;;;;5050955;28;20024;-54
2022/12/13 06:54:18;;;;;;;7.03;1.85;;;22.10;99.90;;;;;;5051400;28;20064;-55
2022/12/13 06:56:44;;;;;;;4.60;2.05;;;22.00;99.90;;;;;;5035578;28;20021;-55
2022/12/13 06:59:11;;;;;;;6.93;1.98;;;22.10;99.90;;;;;;5054563;28;20087;-55
2022/12/13 07:01:37;;;;;;;5.27;2.00;;;22.10;99.90;;;;;;5054364;28;20057;-55
2022/12/13 07:04:02;;;;;;;6.45;2.20;;;22.10;99.90;;;;;;5053497;28;20036;-55
2022/12/13 07:06:28;;;;;;;8.52;2.60;;;22.00;99.90;;;;;;5041373;28;20017;-55
2022/12/13 07:08:56;;;;;;;6.68;2.38;;;22.10;99.90;;;;;;5054593;28;20475;-54
2022/12/13 07:11:26;;;;;;;;;;;22.00;99.90;;;;;;5054720;28;20107;-55
2022/12/13 07:13:52;;;;;;;5.07;2.70;;;22.00;99.90;;;;;;5054355;28;19958;-55
2022/12/13 07:16:19;;;;;;;8.95;2.33;;;22.00;99.90;;;;;;5054173;28;20112;-55
2022/12/13 07:18:45;;;;;;;6.53;3.00;;;22.00;99.90;;;;;;5054264;28;20025;-54
2022/12/13 07:21:13;;;;;;;7.05;2.85;;;22.00;99.90;;;;;;5036235;28;20021;-54
2022/12/13 07:23:39;;;;;;;6.95;2.78;;;22.00;99.90;;;;;;5054036;28;20033;-55
2022/12/13 07:26:07;;;;;;;6.75;3.17;;;22.00;99.90;;;;;;5054105;28;20036;-55
2022/12/13 07:28:34;;;;;;;7.07;2.78;;;22.00;99.90;;;;;;5054010;28;20029;-55
2022/12/13 07:31:02;;;;;;;8.80;3.25;;;22.00;99.90;;;;;;5036026;28;20071;-55
2022/12/13 07:33:31;;;;;;;6.15;3.40;;;22.00;99.90;;;;;;5054220;28;20024;-54
2022/12/13 07:36:08;;;;;;;8.68;4.15;;;22.00;99.90;;;;;;5054180;28;20021;-55
2022/12/13 07:38:35;;;;;;;7.05;3.42;;;22.00;99.90;;;;;;5041333;28;20419;-55
2022/12/13 07:41:01;;;;;;;5.05;3.20;;;22.00;99.90;;;;;;5053878;28;20055;-55
2022/12/13 07:43:28;;;;;;;7.65;3.47;;;22.00;99.90;;;;;;5053891;28;20013;-55
2022/12/13 07:45:58;;;;;;;5.93;3.20;;;22.00;99.90;;;;;;5053689;28;20068;-55
2022/12/13 07:48:24;;;;;;;7.47;3.08;;;22.00;99.90;;;;;;5053404;28;20040;-55
2022/12/13 07:50:49;;;;;;;9.15;3.30;;;22.00;99.90;;;;;;5053500;28;20037;-54
2022/12/13 07:53:15;;;;;;;7.20;3.63;;;22.00;99.90;;;;;;5053530;28;20351;-54
2022/12/13 07:55:41;;;;;;;8.93;3.22;;;22.00;99.90;;;;;;5053481;28;20032;-55
2022/12/13 07:58:09;;;;;;;8.43;3.30;;;22.00;99.90;;;;;;5053524;28;20018;-54
2022/12/13 08:00:40;;;;;;;6.22;3.65;;;22.00;99.90;;;;;;5053140;28;20045;-55
2022/12/13 08:03:06;;;;;;;7.80;3.30;;;22.00;99.90;;;;;;5053274;28;20029;-56
2022/12/13 08:05:32;;;;;;;10.93;4.10;;;22.00;99.90;;;;;;5052965;28;20051;-55
2022/12/13 08:08:02;;;;;;;9.68;4.20;;;22.00;99.90;;;;;;5053376;28;20467;-55
2022/12/13 08:10:28;;;;;;;7.32;3.58;;;22.10;99.90;;;;;;5053359;28;20033;-55
2022/12/13 08:12:54;;;;;;;11.60;3.85;;;22.00;99.90;;;;;;5052968;28;20021;-56
2022/12/13 08:15:20;;;;;;;8.70;4.00;;;22.00;99.90;;;;;;5053124;28;20104;-55
2022/12/13 08:17:47;;;;;;;8.75;3.33;;;22.00;99.90;;;;;;5053088;28;20110;-54
2022/12/13 08:20:13;;;;;;;9.07;4.25;;;22.10;99.90;;;;;;5052740;28;20382;-54
2022/12/13 08:22:39;;;;;;;5.95;3.53;;;22.10;99.90;;;;;;5052917;28;20029;-55
2022/12/13 08:25:06;;;;;;;8.77;4.05;;;22.10;99.90;;;;;;5052906;28;20047;-55
2022/12/13 08:27:32;;;;;;;7.63;4.32;;;22.10;99.90;;;;;;5052965;28;20021;-55
2022/12/13 08:29:58;;;;;;;9.68;4.68;;;22.10;99.90;;;;;;5052912;28;20069;-55
2022/12/13 08:32:23;;;;;;;11.23;6.43;;;22.20;99.90;;;;;;5052612;28;20096;-55
2022/12/13 08:34:49;;;;;;;8.13;5.22;;;22.10;99.90;;;;;;5052575;28;20036;-55
2022/12/13 08:37:16;;;;;;;11.82;5.85;;;22.20;99.90;;;;;;5052617;28;20386;-56
2022/12/13 08:39:43;;;;;;;11.50;6.70;;;22.20;99.90;;;;;;5052474;28;20017;-55
2022/12/13 08:42:14;;;;;;;11.50;6.78;;;22.20;99.90;;;;;;5052613;28;20051;-55
2022/12/13 08:44:40;;;;;;;12.60;6.53;;;22.30;99.90;;;;;;5052508;28;20543;-55
2022/12/13 08:47:06;;;;;;;13.57;6.60;;;22.30;99.90;;;;;;5052377;28;20023;-55
2022/12/13 08:49:32;;;;;;;11.70;6.50;;;22.30;99.90;;;;;;5041689;28;20041;-55
2022/12/13 08:51:58;;;;;;;13.93;7.63;;;22.30;99.90;;;;;;5049051;28;20390;-55
2022/12/13 08:54:24;;;;;;;11.57;5.80;;;22.40;99.90;;;;;;5052211;28;20044;-55
2022/12/13 08:56:50;;;;;;;11.60;5.82;;;22.30;99.90;;;;;;5052047;28;20021;-55
2022/12/13 08:59:17;;;;;;;14.98;6.03;;;22.40;99.90;;;;;;5052148;28;20028;-55
2022/12/13 09:01:43;;;;;;;12.52;6.03;;;22.40;99.90;;;;;;5051905;28;20045;-56
2022/12/13 09:04:09;;;;;;;8.50;5.28;;;22.40;99.90;;;;;;5052016;28;20107;-55
2022/12/13 09:06:34;;;;;;;9.30;6.05;;;22.40;99.90;;;;;;5026406;28;20169;-55
2022/12/13 09:09:01;;;;;;;9.27;5.65;;;22.40;99.90;;;;;;5046437;28;20375;-55
2022/12/13 09:11:27;;;;;;;10.03;6.10;;;22.40;99.90;;;;;;5052020;28;20043;-55
2022/12/13 09:13:53;;;;;;;10.43;5.55;;;22.40;99.90;;;;;;5051936;28;20334;-55
2022/12/13 09:16:23;;;;;;;12.32;6.43;;;22.40;99.90;;;;;;5051839;28;20051;-55
2022/12/13 09:18:50;;;;;;;13.05;6.30;;;22.40;99.90;;;;;;5051276;28;20021;-55
2022/12/13 09:21:17;;;;;;;8.48;5.38;;;22.40;99.90;;;;;;5051941;28;20047;-55
2022/12/13 09:23:43;;;;;;;12.63;6.10;;;22.40;99.90;;;;;;5051917;28;20033;-55
2022/12/13 09:26:14;;;;;;;15.98;5.55;;;22.40;99.90;;;;;;5051885;28;20029;-55
2022/12/13 09:28:40;;;;;;;11.82;5.30;;;22.40;99.90;;;;;;5051602;28;20025;-54
2022/12/13 09:31:11;;;;;;;8.93;5.68;;;22.40;99.90;;;;;;5052125;28;20032;-54
2022/12/13 09:33:37;;;;;;;12.57;5.70;;;22.40;99.90;;;;;;5051649;28;20021;-55
2022/12/13 09:36:05;;;;;;;13.45;5.80;;;22.40;99.90;;;;;;5051903;28;20037;-55
2022/12/13 09:38:32;;;;;;;12.38;6.00;;;22.30;99.90;;;;;;5044381;28;20025;-54
2022/12/13 09:41:02;;;;;;;11.82;6.00;;;22.30;99.90;;;;;;5045350;28;20029;-55
2022/12/13 09:43:31;;;;;;;12.70;5.93;;;22.30;99.90;;;;;;5051587;28;20029;-55
2022/12/13 09:46:00;;;;;;;10.57;6.03;;;22.30;99.90;;;;;;5051733;28;20025;-54
2022/12/13 09:48:26;;;;;;;10.95;5.72;;;22.30;99.90;;;;;;5051528;28;20029;-55
2022/12/13 09:50:53;;;;;;;13.30;6.22;;;22.30;99.90;;;;;;5051540;28;20041;-55
2022/12/13 09:53:20;;;;;;;13.93;7.10;;;22.30;99.90;;;;;;5040063;28;20017;-55
2022/12/13 09:55:48;;;;;;;12.10;5.75;;;22.30;99.90;;;;;;5049011;28;20028;-54
2022/12/13 09:58:23;;;;;;;7.70;5.57;;;22.30;99.90;;;;;;5051601;28;20366;-54
2022/12/13 10:00:52;;;;;;;12.35;6.32;;;22.20;99.90;;;;;;5051200;28;20467;-54
2022/12/13 10:03:20;;;;;;;11.50;6.95;;;22.20;99.90;;;;;;5051504;28;20072;-54
2022/12/13 10:05:58;;;;;;;14.80;7.25;;;22.20;99.90;;;;;;5051491;28;20041;-54
2022/12/13 10:08:34;;;;;;;9.52;7.13;;;22.20;99.90;;;;;;5051336;28;20024;-54
2022/12/13 10:11:00;;;;;;;13.90;6.80;;;22.10;99.90;;;;;;5051139;28;20128;-54
2022/12/13 10:13:40;;;;;;;12.68;7.30;;;22.10;99.90;;;;;;5051343;28;20538;-54
2022/12/13 10:16:27;;;;;;;13.02;6.93;;;22.20;99.90;;;;;;5051614;28;20025;-54
2022/12/13 10:18:53;;;;;;;12.07;6.88;;;22.10;99.90;;;;;;5038394;28;20028;-54
2022/12/13 10:21:31;;;;;;;13.52;6.95;;;22.10;99.90;;;;;;5051396;28;20021;-54
2022/12/13 10:24:18;;;;;;;14.90;8.15;;;22.10;99.90;;;;;;5051175;28;20029;-54
2022/12/13 10:26:44;;;;;;;11.18;7.15;;;22.10;99.90;;;;;;5051212;28;20104;-54
2022/12/13 10:29:10;;;;;;;12.80;7.15;;;22.10;99.90;;;;;;5052748;28;20104;-54
2022/12/13 10:31:44;;;;;;;9.50;6.65;;;22.00;99.90;;;;;;5055296;28;20397;-54
2022/12/13 10:34:27;;;;;;;15.48;7.97;;;22.00;99.90;;;;;;5055071;28;20485;-54
2022/12/13 10:36:53;;;;;;;13.90;7.20;;;22.00;99.90;;;;;;5054931;28;20079;-54
2022/12/13 10:39:39;;;;;;;13.73;8.13;;;22.00;99.90;;;;;;5054654;28;20123;-54
2022/12/13 10:42:12;;;;;;;13.35;7.50;;;22.00;99.90;;;;;;5054855;28;20040;-54
2022/12/13 10:44:38;;;;;;;15.57;9.35;;;22.00;99.90;;;;;;5041621;28;20029;-54
2022/12/13 10:47:20;;;;;;;16.95;8.57;;;22.00;99.90;;;;;;5054185;28;20021;-54
2022/12/13 10:49:52;;;;;;;14.65;8.02;;;22.00;99.90;;;;;;5054508;28;20041;-55
2022/12/13 10:52:40;;;;;;;16.15;8.68;;;22.00;99.90;;;;;;5054582;28;20025;-54
2022/12/13 10:55:37;;;;;;;18.00;9.32;;;21.90;99.90;;;;;;5054568;28;20505;-54
2022/12/13 10:58:16;;;;;;;16.77;9.32;;;22.00;99.90;;;;;;5043973;28;20044;-54
2022/12/13 11:00:45;;;;;;;14.57;8.73;;;21.90;99.90;;;;;;5054355;28;20132;-55
2022/12/13 11:03:30;;;;;;;14.30;8.68;;;21.90;99.90;;;;;;5054639;28;20025;-54
2022/12/13 11:06:18;;;;;;;16.20;9.27;;;21.90;99.90;;;;;;5054293;28;20036;-54
2022/12/13 11:08:44;;;;;;;18.02;9.95;;;21.90;99.90;;;;;;5054230;28;20021;-54
2022/12/13 11:11:11;;;;;;;13.80;9.05;;;22.00;99.90;;;;;;5054590;28;20028;-55
2022/12/13 11:13:44;;;;;;;18.33;10.20;;;21.90;99.90;;;;;;5054510;28;20020;-54
2022/12/13 11:16:31;;;;;;;16.35;9.68;;;21.90;99.90;;;;;;5054274;28;20060;-54
2022/12/13 11:19:01;;;;;;;15.48;9.27;;;21.90;99.90;;;;;;5041435;28;20025;-54
2022/12/13 11:21:32;;;;;;;17.58;9.52;;;21.90;99.90;;;;;;5054112;28;20051;-54
2022/12/13 11:24:01;;;;;;;15.82;8.68;;;21.90;99.90;;;;;;5031996;28;20101;-54
2022/12/13 11:26:28;;;;;;;15.35;9.80;;;21.90;99.90;;;;;;5043147;28;20020;-55
2022/12/13 11:29:05;;;;;;;17.20;9.97;;;21.90;99.90;;;;;;5053815;28;20032;-55
2022/12/13 11:31:37;;;;;;;16.23;11.13;;;21.90;99.90;;;;;;5053971;28;20035;-54
2022/12/13 11:34:24;;;;;;;13.40;8.63;;;21.90;99.90;;;;;;5036148;28;20370;-55
2022/12/13 11:37:09;;;;;;;;;;;21.90;99.90;;;;;;5041458;28;20077;-55
2022/12/13 11:39:39;;;;;;;15.20;9.82;;;21.90;99.90;;;;;;5053649;28;20010;-55
2022/12/13 11:42:26;;;;;;;14.32;9.60;;;21.90;99.90;;;;;;5052914;28;20071;-55
2022/12/13 11:45:05;;;;;;;16.73;9.93;;;21.90;99.90;;;;;;5053588;28;20419;-55
2022/12/13 11:48:02;;;;;;;18.08;9.73;;;21.90;99.90;;;;;;5053718;28;20048;-55
2022/12/13 11:50:35;;;;;;;18.42;10.07;;;21.80;99.90;;;;;;5053458;28;20037;-55
2022/12/13 11:53:30;;;;;;;15.02;9.40;;;21.80;99.90;;;;;;5053484;28;20029;-54
2022/12/13 11:56:09;;;;;;;16.52;11.00;;;21.90;99.90;;;;;;5053490;28;20028;-54
2022/12/13 11:58:56;;;;;;;14.60;10.32;;;21.80;99.90;;;;;;5053700;28;20363;-54
2022/12/13 12:01:38;;;;;;;20.70;10.90;;;21.80;99.90;;;;;;5041727;28;20037;-55
2022/12/13 12:04:22;;;;;;;18.85;10.95;;;21.80;99.90;;;;;;5053177;28;20025;-55
2022/12/13 12:07:12;;;;;;;19.15;10.20;;;21.80;99.90;;;;;;5053456;28;20474;-55
2022/12/13 12:09:46;;;;;;;14.75;9.35;;;21.80;99.90;;;;;;5038700;28;20051;-55
2022/12/13 12:12:37;;;;;;;17.17;9.68;;;21.80;99.90;;;;;;5035172;28;20483;-54
2022/12/13 12:15:15;;;;;;;13.25;8.50;;;21.80;99.90;;;;;;5052961;28;20016;-55
2022/12/13 12:17:41;;;;;;;16.40;8.90;;;21.80;99.90;;;;;;5053069;28;20025;-54
2022/12/13 12:20:13;;;;;;;14.88;8.18;;;21.80;99.90;;;;;;5053477;28;20017;-54
2022/12/13 12:23:19;;;;;;;13.00;7.45;;;21.80;99.90;;;;;;5053026;28;20028;-54
2022/12/13 12:26:15;;;;;;;16.02;9.10;;;21.80;99.90;;;;;;5052830;28;20024;-55
2022/12/13 12:28:56;;;;;;;14.27;8.13;;;21.80;99.90;;;;;;5051741;28;20479;-54
2022/12/13 12:31:55;;;;;;;13.35;8.27;;;21.80;99.90;;;;;;5038312;28;20029;-55
2022/12/13 12:34:33;;;;;;;14.93;7.32;;;21.80;99.90;;;;;;5047026;28;20036;-54
2022/12/13 12:37:14;;;;;;;16.33;7.95;;;21.80;99.90;;;;;;5052589;28;20021;-55
2022/12/13 12:39:59;;;;;;;12.75;7.90;;;21.80;99.90;;;;;;5052282;28;20083;-55
2022/12/13 12:42:58;;;;;;;15.82;8.05;;;21.80;99.90;;;;;;5052361;28;20100;-55
2022/12/13 12:45:51;;;;;;;16.15;8.93;;;21.80;99.90;;;;;;5052523;28;20386;-54
2022/12/13 12:48:16;;;;;;;16.95;10.82;;;21.80;99.90;;;;;;5052672;28;20028;-55
2022/12/13 12:50:45;;;;;;;23.45;14.02;;;21.80;99.90;;;;;;5034378;28;20044;-54
2022/12/13 12:53:29;;;;;;;20.02;13.25;;;21.80;99.90;;;;;;5051347;28;20025;-54
2022/12/13 12:56:28;;;;;;;20.08;12.93;;;21.80;99.90;;;;;;5052303;28;20049;-54
2022/12/13 12:59:04;;;;;;;21.63;13.00;;;21.80;99.90;;;;;;5052126;28;20033;-54
2022/12/13 13:01:50;;;;;;;18.05;12.68;;;21.80;99.90;;;;;;5052021;28;20559;-54
2022/12/13 13:04:20;;;;;;;18.70;12.73;;;21.80;99.90;;;;;;5052269;28;20068;-55